• Join FlightAware (Why Join?)
  • Login
  • US Flag 
12:46AM EDT


 

Airport Tracker/Info


-or-


 

Live Flight TrackerFlight Track Log ✈ HL-7403 ✈ 16-Apr-2013 ✈ PANC - RKSI / ICN

Flight Track Log - Related Links

Times and Time Zones

All times are in EDT time to prevent confusion due to time zone crossing. See the HL-7403 flight status page for this flight to view local times or setup timezone preferences in your user account.

Time Position Orientation Groundspeed Altitude Reporting Facility
EDT Latitude Longitude Course Direction KTS MPH feet Rate Location/Type
11:24AM 61.2140 -150.0230 344° North 175 201 1,000  Level FlightAware
11:24AM 61.2240 -150.0390 322° Northwest 181 208 1,500 1,800 Climbing FlightAware
11:24AM 61.2330 -150.0570 316° Northwest 184 212 1,900 1,500 Climbing FlightAware
11:25AM 61.2470 -150.0910 311° West 195 224 2,500 1,500 Climbing FlightAware
11:25AM 61.2490 -150.1190 278° West 201 231 2,900 1,560 Climbing FlightAware
11:25AM 61.2500 -150.1480 274° West 202 232 3,300 900 Climbing FlightAware
11:25AM 61.2520 -150.1990 275° West 229 264 3,500 900 Climbing FlightAware
11:26AM 61.2550 -150.3440 273° West 274 315 4,600 1,500 Climbing FlightAware
11:27AM 61.2570 -150.4230 273° West 277 319 5,800 2,400 Climbing FlightAware
11:27AM 61.2590 -150.4900 274° West 281 323 6,800 2,400 Climbing FlightAware
11:28AM 61.2610 -150.5720 273° West 285 328 8,000 2,520 Climbing FlightAware
11:28AM 61.2610 -150.6150 270° West 286 329 8,700 2,160 Climbing FlightAware
11:29AM 61.2640 -150.7240 273° West 295 339 10,000 1,380 Climbing FlightAware
11:29AM 61.2660 -150.8410 272° West 328 377 10,600 960 Climbing FlightAware
11:30AM 61.2690 -150.9880 272° West 363 418 11,400 1,440 Climbing FlightAware
11:31AM 61.2710 -151.1500 272° West 382 440 12,800 2,160 Climbing FlightAware
11:32AM 61.2740 -151.3050 272° West 388 447 14,500 2,400 Climbing FlightAware
11:32AM 61.2760 -151.4510 272° West 394 453 16,000 2,280 Climbing FlightAware
11:33AM 61.2790 -151.6100 272° West 399 459 17,600 2,100 Climbing FlightAware
11:34AM 61.2810 -151.7800 271° West 406 467 19,000 1,920 Climbing FlightAware
11:34AM 61.2830 -151.9530 271° West 412 474 20,500 1,860 Climbing FlightAware
11:35AM 61.2840 -152.1120 271° West 417 480 21,700 1,740 Climbing FlightAware
11:36AM 61.2850 -152.2930 271° West 422 486 23,000 1,620 Climbing FlightAware
11:37AM 61.2860 -152.4640 271° West 427 491 24,000 1,500 Climbing FlightAware
11:37AM 61.2860 -152.6290 270° West 430 495 25,000 1,320 Climbing FlightAware
11:38AM 61.2860 -152.8130 270° West 440 506 25,900 1,200 Climbing FlightAware
11:39AM 61.2860 -152.9560 270° West 443 510 26,600 1,200 Climbing FlightAware
11:39AM 61.2860 -153.1490 270° West 449 517 27,500 1,320 Climbing FlightAware
11:40AM 61.2850 -153.3250 269° West 447 514 28,500 1,440 Climbing FlightAware
11:41AM 61.2850 -153.5180 270° West 445 512 29,600 1,200 Climbing FlightAware
11:41AM 61.2840 -153.7100 269° West 449 517 30,300 1,020 Climbing FlightAware
11:42AM 61.2820 -153.8870 269° West 450 518 31,100 1,080 Climbing FlightAware
11:43AM 61.2810 -154.0340 269° West 452 520 31,700 600 Climbing FlightAware
11:44AM 61.2790 -154.2560 269° West 455 524 32,000 120 Climbing FlightAware
11:45AM 61.2760 -154.5750 269° West 453 521 32,000  Level FlightAware
11:46AM 61.2710 -154.9320 268° West 452 520 32,000  Level FlightAware
11:47AM 61.2680 -155.1280 268° West 452 520 32,000  Level FlightAware
11:48AM 61.2670 -155.2760 269° West 452 520 32,000  Level FlightAware
11:48AM 61.2650 -155.4610 269° West 452 520 32,000  Level FlightAware
11:49AM 61.2640 -155.6090 269° West 452 520 32,000  Level FlightAware
11:50AM 61.2630 -155.7570 269° West 452 520 32,000  Level FlightAware
11:50AM 61.2620 -155.9050 269° West 452 520 32,000  Level FlightAware
11:51AM 61.2600 -156.0520 268° West 452 520 32,000  Level FlightAware
11:52AM 61.2590 -156.2370 269° West 452 520 32,000  Level FlightAware
11:53AM 61.2570 -156.3850 268° West 452 520 32,000  Level FlightAware
11:53AM 61.2560 -156.5330 269° West 452 520 32,000  Level FlightAware
11:54AM 61.2550 -156.6810 269° West 452 520 32,000  Level FlightAware
11:55AM 61.2540 -156.8290 269° West 452 520 32,000  Level FlightAware
11:55AM 61.2520 -157.0130 269° West 452 520 32,000  Level FlightAware
11:56AM 61.2510 -157.1610 269° West 452 520 32,000  Level FlightAware
11:57AM 61.2500 -157.6500 269° West 440 506 32,000  Level Anchorage Center
11:58AM 61.2333 -157.9167 263° West 440 506 32,000  Level Anchorage Center
11:59AM 61.2333 -158.1667 270° West 440 506 32,000  Level Anchorage Center
12:00PM 61.2333 -158.4167 270° West 440 506 32,000  Level Anchorage Center
12:01PM 61.2333 -158.6667 270° West 440 506 32,000  Level Anchorage Center
12:02PM 61.2333 -158.9333 270° West 430 495 32,000  Level Anchorage Center
12:03PM 61.2333 -159.1833 270° West 440 506 32,000  Level Anchorage Center
12:04PM 61.2167 -159.4333 262° West 430 495 32,000  Level Anchorage Center
12:05PM 61.2167 -159.6833 270° West 430 495 32,000  Level Anchorage Center
12:06PM 61.2167 -159.9500 270° West 440 506 32,000  Level Anchorage Center
12:07PM 61.2000 -160.2500 264° West 430 495 32,000  Level Anchorage Center
12:08PM 61.2000 -160.5000 270° West 430 495 32,000  Level Anchorage Center
12:09PM 61.2000 -160.7167 270° West 430 495 32,000  Level Anchorage Center
12:10PM 61.1833 -160.9667 262° West 430 495 32,000  Level Anchorage Center
12:11PM 61.1833 -161.2167 270° West 430 495 32,000  Level Anchorage Center
12:12PM 61.1667 -161.4667 262° West 430 495 32,000  Level Anchorage Center
12:13PM 61.1667 -161.7167 270° West 430 495 32,000  Level Anchorage Center
12:14PM 61.1500 -161.9667 262° West 430 495 32,000 120 Level Anchorage Center
12:15PM 61.1500 -162.2167 270° West 430 495 32,300 480 Climbing Anchorage Center
12:16PM 61.1333 -162.4667 262° West 440 506 33,000 300 Climbing Anchorage Center
12:17PM 61.1167 -162.7167 262° West 430 495 33,000  Level Anchorage Center
12:18PM 61.1167 -162.9667 270° West 430 495 33,000  Level Anchorage Center
12:19PM 61.0833 -163.2000 254° West 430 495 33,000  Level Anchorage Center
12:20PM 61.0500 -163.4500 255° West 440 506 33,000  Level Anchorage Center
12:21PM 61.0167 -163.7000 255° West 440 506 33,000  Level Anchorage Center
12:22PM 60.9667 -163.9333 246° West 440 506 33,000  Level Anchorage Center
12:23PM 60.9333 -164.1833 255° West 440 506 33,000  Level Anchorage Center
12:24PM 60.9000 -164.4333 255° West 440 506 33,000  Level Anchorage Center
12:25PM 60.8667 -164.6667 254° West 430 495 33,000  Level Anchorage Center
12:26PM 60.8333 -164.9000 254° West 440 506 33,000  Level Anchorage Center
12:27PM 60.7833 -165.1500 248° West 430 495 33,000  Level Anchorage Center
12:28PM 60.7500 -165.3833 254° West 430 495 33,000  Level Anchorage Center
12:29PM 60.7167 -165.6167 254° West 440 506 33,000  Level Anchorage Center
12:30PM 60.6667 -165.9000 250° West 430 495 33,000  Level Anchorage Center
12:31PM 60.6333 -166.1500 255° West 440 506 33,000  Level Anchorage Center
12:32PM 60.5833 -166.3833 247° West 430 495 33,000  Level Anchorage Center
12:33PM 60.5500 -166.6167 254° West 430 495 33,000  Level Anchorage Center
12:34PM 60.5167 -166.8500 254° West 430 495 33,000  Level Anchorage Center
12:35PM 60.4667 -167.0833 247° West 430 495 33,000  Level Anchorage Center
12:36PM 60.4333 -167.3167 254° West 430 495 33,000  Level Anchorage Center
12:37PM 60.3833 -167.5333 245° Southwest 430 495 33,000  Level Anchorage Center
12:38PM 60.3500 -167.7833 255° West 440 506 33,000  Level Anchorage Center
12:39PM 60.3000 -168.0000 245° Southwest 430 495 33,000  Level Anchorage Center
12:40PM 60.2667 -168.2333 254° West 430 495 33,000  Level Anchorage Center
12:41PM 60.2167 -168.4500 245° Southwest 420 483 33,000  Level Anchorage Center
12:42PM 60.1833 -168.6667 253° West 420 483 33,000  Level Anchorage Center
12:43PM 60.1333 -168.9000 247° West 420 483 33,000  Level Anchorage Center
12:44PM 60.1000 -169.1167 253° West 420 483 33,000  Level Anchorage Center
12:45PM 60.0500 -169.3500 247° West 430 495 33,000  Level Anchorage Center
12:46PM 60.0000 -169.5667 245° Southwest 430 495 33,000  Level Anchorage Center
12:47PM 59.9667 -169.7833 253° West 430 495 33,000  Level Anchorage Center
12:48PM 59.9167 -170.0167 247° West 430 495 33,000  Level Anchorage Center
12:49PM 59.8833 -170.2333 253° West 430 495 33,000  Level Anchorage Center
12:50PM 59.8333 -170.4333 244° Southwest 430 495 33,000  Level Anchorage Center
12:51PM 59.8000 -170.6500 253° West 430 495 33,000  Level Anchorage Center
12:52PM 59.7500 -170.8833 247° West 440 506 33,000  Level Anchorage Center
12:53PM 59.7000 -171.1167 247° West 440 506 33,000  Level Anchorage Center
12:54PM 59.6500 -171.3333 246° West 430 495 33,000  Level Anchorage Center
12:55PM 59.6000 -171.5500 246° West 430 495 33,000  Level Anchorage Center
12:56PM 59.5500 -171.7833 247° West 440 506 33,000  Level Anchorage Center
12:57PM 59.5000 -172.0000 246° West 430 495 33,000  Level Anchorage Center
12:58PM 59.4667 -172.2333 254° West 440 506 33,000  Level Anchorage Center
12:59PM 59.4167 -172.4500 246° West 440 506 33,000  Level Anchorage Center
01:00PM 59.3667 -172.6833 247° West 440 506 33,000  Level Anchorage Center
01:01PM 59.3167 -172.9000 246° West 440 506 33,000  Level Anchorage Center
01:02PM 59.2833 -173.1333 254° West 440 506 33,000  Level Anchorage Center
01:03PM 59.2333 -173.3500 246° West 440 506 33,000  Level Anchorage Center
01:04PM 59.1833 -173.5833 247° West 440 506 33,000  Level Anchorage Center
01:05PM 59.1333 -173.8000 246° West 440 506 33,000  Level Anchorage Center
01:06PM 59.0833 -174.0167 246° West 440 506 33,000  Level Anchorage Center
01:07PM 59.0333 -174.2500 247° West 440 506 33,000  Level Anchorage Center
01:08PM 58.9833 -174.4667 246° West 450 518 33,000  Level Anchorage Center
01:09PM 58.9333 -174.6833 246° West 440 506 33,000  Level Anchorage Center
01:10PM 58.8833 -174.9167 248° West 460 529 33,000  Level Anchorage Center
01:11PM 58.8333 -175.1333 246° West 440 506 33,000  Level Anchorage Center
01:12PM 58.7833 -175.3500 246° West 440 506 33,000  Level Anchorage Center
01:13PM 58.7333 -175.5833 248° West 450 518 33,000  Level Anchorage Center
01:14PM 58.6833 -175.8000 246° West 450 518 33,000  Level Anchorage Center
01:15PM 58.6333 -176.0167 246° West 470 541 33,000  Level Anchorage Center
01:16PM 58.5833 -176.2500 248° West 460 529 33,000  Level Anchorage Center
01:17PM 58.5167 -176.4667 240° Southwest 450 518 33,000  Level Anchorage Center
01:18PM 58.4667 -176.6833 246° West 440 506 33,000  Level Anchorage Center
01:19PM 58.4167 -176.9000 246° West 450 518 33,000  Level Anchorage Center
01:20PM 58.3833 -177.1000 252° West 410 472 33,000  Level Anchorage Center
01:21PM 58.3167 -177.3167 240° Southwest 450 518 33,000  Level Anchorage Center
01:23PM 58.2512 -177.5786 245° Southwest  Level FlightAware Approximate
01:30PM 57.8797 -179.0089 244° Southwest  Level FlightAware Approximate
01:31PM 57.8253 -179.2108 243° Southwest  Level FlightAware Approximate
01:32PM 57.7706 -179.4121 243° Southwest  Level FlightAware Approximate
01:33PM 57.7156 -179.6128 243° Southwest  Level FlightAware Approximate
01:34PM 57.6603 -179.8128 243° Southwest  Level FlightAware Approximate
01:35PM 57.6046 179.9877 243° Southwest  Level FlightAware Approximate
01:36PM 57.5487 179.7889 242° Southwest  Level FlightAware Approximate
01:37PM 57.4924 179.5907 242° Southwest  Level FlightAware Approximate
01:38PM 57.4358 179.3930 242° Southwest  Level FlightAware Approximate
01:39PM 57.3789 179.1960 242° Southwest  Level FlightAware Approximate
01:40PM 57.3217 178.9996 242° Southwest  Level FlightAware Approximate
01:41PM 57.2642 178.8039 242° Southwest  Level FlightAware Approximate
01:42PM 57.2064 178.6087 241° Southwest  Level FlightAware Approximate
01:43PM 57.1483 178.4141 241° Southwest  Level FlightAware Approximate
01:44PM 57.0899 178.2202 241° Southwest  Level FlightAware Approximate
01:45PM 57.0312 178.0269 241° Southwest  Level FlightAware Approximate
01:46PM 56.9722 177.8341 241° Southwest  Level FlightAware Approximate
01:47PM 56.9129 177.6420 241° Southwest  Level FlightAware Approximate
01:48PM 56.8534 177.4505 240° Southwest  Level FlightAware Approximate
01:49PM 56.7934 177.2597 240° Southwest  Level FlightAware Approximate
01:50PM 56.7329 177.0698 240° Southwest  Level FlightAware Approximate
01:51PM 56.6721 176.8804 240° Southwest  Level FlightAware Approximate
01:52PM 56.6111 176.6917 240° Southwest  Level FlightAware Approximate
01:53PM 56.5498 176.5036 239° Southwest  Level FlightAware Approximate
01:54PM 56.4881 176.3161 239° Southwest  Level FlightAware Approximate
01:55PM 56.4262 176.1292 239° Southwest  Level FlightAware Approximate
01:56PM 56.3641 175.9429 239° Southwest  Level FlightAware Approximate
01:57PM 56.3016 175.7572 239° Southwest  Level FlightAware Approximate
01:57PM 56.0500 175.0000 238° Southwest 540 621 33,000  Level Anchorage Center
01:58PM 56.2389 175.5721 239° Southwest  Level FlightAware Approximate
01:59PM 56.1759 175.3876 239° Southwest  Level FlightAware Approximate
02:00PM 56.1126 175.2038 238° Southwest  Level FlightAware Approximate
02:00PM 55.9826 174.8088 238° Southwest  Level FlightAware Approximate
02:01PM 56.0490 175.0205 238° Southwest  Level FlightAware Approximate
02:01PM 55.8000 174.3000 238° Southwest 540 621 33,000  Level Anchorage Center
02:02PM 55.9852 174.8378 238° Southwest  Level FlightAware Approximate
02:02PM 55.7333 174.1333 235° Southwest 500 575 33,000  Level Anchorage Center
02:03PM 55.9211 174.6558 238° Southwest  Level FlightAware Approximate
02:03PM 55.6500 173.9167 236° Southwest 490 564 33,000  Level Anchorage Center
02:04PM 55.5833 173.7333 237° Southwest 490 564 33,000  Level Anchorage Center
02:05PM 55.5000 173.5167 236° Southwest 500 575 33,000  Level Anchorage Center
02:06PM 55.4167 173.2833 238° Southwest 500 575 33,000  Level Anchorage Center
02:07PM 55.3500 173.1167 235° Southwest 500 575 33,000  Level Anchorage Center
02:08PM 55.2667 172.8833 238° Southwest 510 587 33,000  Level Anchorage Center
02:09PM 55.2000 172.7000 238° Southwest 510 587 33,000  Level Anchorage Center
02:10PM 55.1167 172.4833 236° Southwest 500 575 33,000  Level Anchorage Center
02:11PM 55.0500 172.3167 235° Southwest 500 575 33,000  Level Anchorage Center
02:12PM 54.9667 172.0833 238° Southwest 500 575 33,000  Level Anchorage Center
02:13PM 54.8833 171.8667 236° Southwest 500 575 33,000  Level Anchorage Center
02:14PM 54.8000 171.7000 229° Southwest 510 587 33,000  Level Anchorage Center
02:15PM 54.7167 171.4833 236° Southwest 510 587 33,000  Level Anchorage Center
02:16PM 54.6500 171.3000 238° Southwest 510 587 33,000  Level Anchorage Center
02:17PM 54.5500 171.0833 232° Southwest 520 598 33,000  Level Anchorage Center
02:18PM 54.4833 170.9167 235° Southwest 510 587 33,000  Level Anchorage Center
02:19PM 54.3833 170.7000 232° Southwest 510 587 33,000  Level Anchorage Center
02:20PM 54.3167 170.5333 236° Southwest 510 587 33,000  Level Anchorage Center
02:21PM 54.2333 170.3333 235° Southwest 510 587 33,000  Level Anchorage Center
02:22PM 54.1333 170.1167 232° Southwest 490 564 33,000  Level Anchorage Center
02:23PM 54.0667 169.9667 233° Southwest 490 564 33,000  Level Anchorage Center
02:24PM 53.9667 169.7500 232° Southwest 500 575 33,000  Level Anchorage Center
02:25PM 53.9000 169.6000 233° Southwest 480 552 33,000  Level Anchorage Center
02:26PM 53.8167 169.4000 235° Southwest 500 575 33,000  Level Anchorage Center
02:27PM 53.7500 169.2333 236° Southwest 490 564 33,000  Level Anchorage Center
02:28PM 53.6667 169.0333 235° Southwest 480 552 33,000  Level Anchorage Center
02:30PM 53.5677 168.7334 241° Southwest  Level FlightAware Approximate
02:37PM 53.1482 167.5175 240° Southwest  Level FlightAware Approximate
02:38PM 53.0869 167.3462 239° Southwest  Level FlightAware Approximate
02:39PM 53.0253 167.1753 239° Southwest  Level FlightAware Approximate
02:40PM 52.9635 167.0050 239° Southwest  Level FlightAware Approximate
02:41PM 52.9014 166.8351 239° Southwest  Level FlightAware Approximate
02:42PM 52.8391 166.6657 239° Southwest  Level FlightAware Approximate
02:43PM 52.7765 166.4968 239° Southwest  Level FlightAware Approximate
02:44PM 52.7137 166.3284 238° Southwest  Level FlightAware Approximate
02:45PM 52.6507 166.1605 238° Southwest  Level FlightAware Approximate
02:46PM 52.5874 165.9930 238° Southwest  Level FlightAware Approximate
02:47PM 52.5239 165.8261 238° Southwest  Level FlightAware Approximate
02:48PM 52.4601 165.6596 238° Southwest  Level FlightAware Approximate
02:49PM 52.3961 165.4936 238° Southwest  Level FlightAware Approximate
02:50PM 52.3319 165.3281 238° Southwest  Level FlightAware Approximate
02:51PM 52.2675 165.1631 238° Southwest  Level FlightAware Approximate
02:52PM 52.2028 164.9985 237° Southwest  Level FlightAware Approximate
02:53PM 52.1379 164.8345 237° Southwest  Level FlightAware Approximate
02:54PM 52.0728 164.6709 237° Southwest  Level FlightAware Approximate
02:55PM 52.0075 164.5077 237° Southwest  Level FlightAware Approximate
02:56PM 51.9419 164.3451 237° Southwest  Level FlightAware Approximate
02:57PM 51.8761 164.1829 237° Southwest  Level FlightAware Approximate
02:58PM 51.8101 164.0213 237° Southwest  Level FlightAware Approximate
02:59PM 51.7438 163.8600 236° Southwest  Level FlightAware Approximate
03:00PM 51.6774 163.6993 236° Southwest  Level FlightAware Approximate
03:01PM 51.6107 163.5391 236° Southwest  Level FlightAware Approximate
03:02PM 51.5437 163.3794 236° Southwest  Level FlightAware Approximate
03:03PM 51.4765 163.2201 236° Southwest  Level FlightAware Approximate
03:04PM 51.4091 163.0614 236° Southwest  Level FlightAware Approximate
03:05PM 51.3414 162.9031 236° Southwest  Level FlightAware Approximate
03:06PM 51.2736 162.7452 236° Southwest  Level FlightAware Approximate
03:07PM 51.2056 162.5879 235° Southwest  Level FlightAware Approximate
03:08PM 51.1373 162.4310 235° Southwest  Level FlightAware Approximate
03:09PM 51.0688 162.2745 235° Southwest  Level FlightAware Approximate
03:10PM 51.0001 162.1185 235° Southwest  Level FlightAware Approximate
03:11PM 50.9313 161.9630 235° Southwest  Level FlightAware Approximate
03:12PM 50.8622 161.8080 235° Southwest  Level FlightAware Approximate
03:13PM 50.7929 161.6534 235° Southwest  Level FlightAware Approximate
03:14PM 50.7234 161.4993 235° Southwest  Level FlightAware Approximate
03:15PM 50.6537 161.3456 234° Southwest  Level FlightAware Approximate
03:16PM 50.5838 161.1924 234° Southwest  Level FlightAware Approximate
03:17PM 50.5137 161.0396 234° Southwest  Level FlightAware Approximate
03:18PM 50.4434 160.8873 234° Southwest  Level FlightAware Approximate
03:19PM 50.3729 160.7354 234° Southwest  Level FlightAware Approximate
03:20PM 50.3022 160.5840 234° Southwest  Level FlightAware Approximate
03:21PM 50.2313 160.4330 234° Southwest  Level FlightAware Approximate
03:22PM 50.1605 160.2822 234° Southwest  Level FlightAware Approximate
03:23PM 50.0898 160.1314 234° Southwest  Level FlightAware Approximate
03:24PM 50.0189 159.9812 234° Southwest  Level FlightAware Approximate
03:25PM 49.9478 159.8313 234° Southwest  Level FlightAware Approximate
03:26PM 49.8765 159.6819 234° Southwest  Level FlightAware Approximate
03:27PM 49.8050 159.5330 233° Southwest  Level FlightAware Approximate
03:28PM 49.7334 159.3845 233° Southwest  Level FlightAware Approximate
03:29PM 49.6610 159.2540 233° Southwest  Level FlightAware Approximate
03:30PM 49.5884 159.1070 233° Southwest  Level FlightAware Approximate
03:31PM 49.5157 158.9604 233° Southwest  Level FlightAware Approximate
03:32PM 49.4427 158.8143 233° Southwest  Level FlightAware Approximate
03:33PM 49.3696 158.6685 232° Southwest  Level FlightAware Approximate
03:34PM 49.2963 158.5233 232° Southwest  Level FlightAware Approximate
03:35PM 49.2228 158.3784 232° Southwest  Level FlightAware Approximate
03:36PM 49.1491 158.2340 232° Southwest  Level FlightAware Approximate
03:37PM 49.0753 158.0900 232° Southwest  Level FlightAware Approximate
03:38PM 49.0012 157.9465 232° Southwest  Level FlightAware Approximate
03:39PM 48.9270 157.8033 232° Southwest  Level FlightAware Approximate
03:40PM 48.8526 157.6606 232° Southwest  Level FlightAware Approximate
03:41PM 48.7781 157.5184 232° Southwest  Level FlightAware Approximate
03:42PM 48.7035 157.3763 232° Southwest  Level FlightAware Approximate
03:43PM 48.6290 157.2344 232° Southwest  Level FlightAware Approximate
03:44PM 48.5544 157.0928 231° Southwest  Level FlightAware Approximate
03:45PM 48.4795 156.9517 231° Southwest  Level FlightAware Approximate
03:46PM 48.4045 156.8110 231° Southwest  Level FlightAware Approximate
03:47PM 48.3293 156.6707 231° Southwest  Level FlightAware Approximate
03:48PM 48.2540 156.5309 231° Southwest  Level FlightAware Approximate
03:49PM 48.1785 156.3914 231° Southwest  Level FlightAware Approximate
03:50PM 48.1028 156.2524 231° Southwest  Level FlightAware Approximate
03:51PM 48.0269 156.1138 231° Southwest  Level FlightAware Approximate
03:52PM 47.9509 155.9756 231° Southwest  Level FlightAware Approximate
03:53PM 47.8747 155.8377 231° Southwest  Level FlightAware Approximate
03:54PM 47.7983 155.7003 230° Southwest  Level FlightAware Approximate
03:55PM 47.7218 155.5633 230° Southwest  Level FlightAware Approximate
03:56PM 47.6451 155.4267 230° Southwest  Level FlightAware Approximate
03:57PM 47.5683 155.2905 230° Southwest  Level FlightAware Approximate
03:58PM 47.4913 155.1547 230° Southwest  Level FlightAware Approximate
03:59PM 47.4141 155.0193 230° Southwest  Level FlightAware Approximate
04:00PM 47.3368 154.8843 230° Southwest  Level FlightAware Approximate
04:01PM 47.2593 154.7496 230° Southwest  Level FlightAware Approximate
04:02PM 47.1817 154.6154 230° Southwest  Level FlightAware Approximate
04:03PM 47.1039 154.4816 230° Southwest  Level FlightAware Approximate
04:04PM 47.0260 154.3481 229° Southwest  Level FlightAware Approximate
04:05PM 46.9479 154.2151 229° Southwest  Level FlightAware Approximate
04:06PM 46.8696 154.0824 229° Southwest  Level FlightAware Approximate
04:07PM 46.7912 153.9502 229° Southwest  Level FlightAware Approximate
04:08PM 46.7127 153.8183 229° Southwest  Level FlightAware Approximate
04:09PM 46.6339 153.6868 229° Southwest  Level FlightAware Approximate
04:10PM 46.5551 153.5556 229° Southwest  Level FlightAware Approximate
04:11PM 46.4761 153.4249 229° Southwest  Level FlightAware Approximate
04:12PM 46.3969 153.2946 229° Southwest  Level FlightAware Approximate
04:13PM 46.3176 153.1646 229° Southwest  Level FlightAware Approximate
04:14PM 46.2382 153.0349 228° Southwest  Level FlightAware Approximate
04:15PM 46.1580 152.9064 228° Southwest  Level FlightAware Approximate
04:16PM 46.0776 152.7785 228° Southwest  Level FlightAware Approximate
04:17PM 45.9970 152.6509 228° Southwest  Level FlightAware Approximate
04:18PM 45.9162 152.5237 228° Southwest  Level FlightAware Approximate
04:19PM 45.8353 152.3969 228° Southwest  Level FlightAware Approximate
04:20PM 45.7543 152.2705 227° Southwest  Level FlightAware Approximate
04:21PM 45.6731 152.1444 227° Southwest  Level FlightAware Approximate
04:22PM 45.5919 152.0187 227° Southwest  Level FlightAware Approximate
04:23PM 45.5104 151.8934 227° Southwest  Level FlightAware Approximate
04:24PM 45.4288 151.7684 227° Southwest  Level FlightAware Approximate
04:25PM 45.3471 151.6438 227° Southwest  Level FlightAware Approximate
04:26PM 45.2653 151.5195 227° Southwest  Level FlightAware Approximate
04:27PM 45.1833 151.3956 227° Southwest  Level FlightAware Approximate
04:28PM 45.1012 151.2720 227° Southwest  Level FlightAware Approximate
04:29PM 45.0189 151.1488 227° Southwest  Level FlightAware Approximate
04:30PM 44.9365 151.0260 227° Southwest  Level FlightAware Approximate
04:31PM 44.8540 150.9035 226° Southwest  Level FlightAware Approximate
04:32PM 44.7714 150.7814 226° Southwest  Level FlightAware Approximate
04:33PM 44.6886 150.6596 226° Southwest  Level FlightAware Approximate
04:34PM 44.6057 150.5381 226° Southwest  Level FlightAware Approximate
04:35PM 44.5227 150.4171 226° Southwest  Level FlightAware Approximate
04:36PM 44.4395 150.2963 226° Southwest  Level FlightAware Approximate
04:37PM 44.3563 150.1759 226° Southwest  Level FlightAware Approximate
04:38PM 44.2728 150.0558 226° Southwest  Level FlightAware Approximate
04:39PM 44.1893 149.9361 226° Southwest  Level FlightAware Approximate
04:40PM 44.1056 149.8167 226° Southwest  Level FlightAware Approximate
04:40PM 43.3210 148.7220 226° Southwest 409 471 34,000  Level FlightAware
04:40PM 43.2570 148.6340 225° Southwest 409 471 34,000  Level FlightAware
04:41PM 44.0219 149.6977 226° Southwest  Level FlightAware Approximate
04:41PM 43.2130 148.5750 224° Southwest 411 473 34,000  Level FlightAware
04:42PM 43.1430 148.4800 225° Southwest 412 474 34,000  Level FlightAware
04:43PM 43.0890 148.4060 225° Southwest 410 472 34,000  Level FlightAware
04:43PM 43.0380 148.3370 225° Southwest 410 472 34,000  Level FlightAware
04:44PM 42.9740 148.2510 225° Southwest 410 472 34,000  Level FlightAware
04:45PM 42.9200 148.1770 225° Southwest 409 471 34,000  Level FlightAware
04:45PM 42.8690 148.1100 224° Southwest 407 468 34,000  Level FlightAware
04:46PM 42.8160 148.0380 225° Southwest 405 466 34,000  Level FlightAware
04:47PM 42.7480 147.9490 224° Southwest 403 464 34,000  Level FlightAware
04:47PM 42.6900 147.8710 225° Southwest 403 464 34,000  Level FlightAware
04:48PM 42.6390 147.8020 225° Southwest 403 464 34,000  Level FlightAware
04:49PM 42.5790 147.7230 224° Southwest 401 461 34,000  Level FlightAware
04:50PM 42.5090 147.6320 224° Southwest 400 460 34,000  Level FlightAware
04:50PM 42.4550 147.5600 225° Southwest 400 460 34,000  Level FlightAware
04:51PM 42.3950 147.4820 224° Southwest 392 451 34,000  Level FlightAware
04:52PM 42.3420 147.4110 225° Southwest 393 452 34,000  Level FlightAware
04:53PM 42.2880 147.3410 224° Southwest 400 460 34,000  Level FlightAware
04:53PM 42.2320 147.2680 224° Southwest 402 463 34,000  Level FlightAware
04:54PM 42.1640 147.1790 224° Southwest 403 464 34,000  Level FlightAware
04:55PM 42.0880 147.0820 223° Southwest 404 465 34,000  Level FlightAware
04:56PM 42.0200 146.9940 224° Southwest 406 467 34,000  Level FlightAware
04:57PM 41.9630 146.9200 224° Southwest 408 470 34,000  Level FlightAware
04:57PM 41.8930 146.8290 224° Southwest 403 464 34,000  Level FlightAware
04:58PM 41.8300 146.7480 224° Southwest 404 465 34,000  Level FlightAware
04:59PM 41.7740 146.6760 224° Southwest 404 465 34,000  Level FlightAware
05:00PM 41.7130 146.5990 223° Southwest 404 465 34,000  Level FlightAware
05:00PM 41.6560 146.5270 223° Southwest 404 465 34,000  Level FlightAware
05:01PM 41.6010 146.4570 224° Southwest 405 466 34,000  Level FlightAware
05:02PM 41.5380 146.3770 224° Southwest 405 466 34,000  Level FlightAware
05:02PM 41.4950 146.3240 223° Southwest 406 467 34,000  Level FlightAware
05:03PM 41.4030 146.2080 223° Southwest 405 466 34,000  Level FlightAware
05:04PM 41.3470 146.1360 224° Southwest 405 466 34,000  Level FlightAware
05:05PM 41.2900 146.0650 223° Southwest 406 467 34,000  Level FlightAware
05:05PM 41.2240 145.9830 223° Southwest 408 470 34,000  Level FlightAware
05:06PM 41.1470 145.8880 223° Southwest 408 470 34,000  Level FlightAware
05:07PM 41.0890 145.8140 224° Southwest 416 479 34,000  Level FlightAware
05:08PM 41.0320 145.7450 222° Southwest 416 479 34,000  Level FlightAware
05:08PM 40.9750 145.6730 224° Southwest 416 479 34,000  Level FlightAware
05:09PM 40.9290 145.6180 222° Southwest 417 480 34,000  Level FlightAware
05:10PM 40.8540 145.5260 223° Southwest 418 481 34,000  Level FlightAware
05:11PM 40.7570 145.4060 223° Southwest 418 481 34,000  Level FlightAware
05:12PM 40.6910 145.3240 223° Southwest 418 481 34,000  Level FlightAware
05:13PM 40.6160 145.2360 222° Southwest 418 481 34,000  Level FlightAware
05:14PM 40.4850 145.0750 223° Southwest 415 478 34,000  Level FlightAware
05:15PM 40.4310 145.0110 222° Southwest 414 476 34,000  Level FlightAware
05:16PM 40.3780 144.9070 236° Southwest 400 460 34,000  Level FlightAware
05:16PM 40.3390 144.8240 238° Southwest 396 456 34,000  Level FlightAware
05:17PM 40.2950 144.7270 239° Southwest 398 458 34,000  Level FlightAware
05:18PM 40.2620 144.6580 238° Southwest 398 458 34,000  Level FlightAware
05:19PM 40.2170 144.5650 238° Southwest 398 458 34,000  Level FlightAware
05:19PM 40.1840 144.4950 238° Southwest 398 458 34,000  Level FlightAware
05:20PM 40.1510 144.4260 238° Southwest 398 458 34,000  Level FlightAware
05:21PM 40.1180 144.3560 238° Southwest 398 458 34,000  Level FlightAware
05:21PM 40.0850 144.2870 238° Southwest 398 458 34,000  Level FlightAware
05:22PM 40.0510 144.2170 238° Southwest 398 458 34,000  Level FlightAware
05:23PM 40.0100 144.1310 238° Southwest 398 458 34,000  Level FlightAware
05:23PM 39.9770 144.0620 238° Southwest 398 458 34,000  Level FlightAware
05:24PM 39.9440 143.9920 238° Southwest 398 458 34,000  Level FlightAware
05:25PM 39.9100 143.9230 237° Southwest 398 458 34,000  Level FlightAware
05:25PM 39.8770 143.8540 238° Southwest 398 458 34,000  Level FlightAware
05:26PM 39.8360 143.7670 238° Southwest 398 458 34,000  Level FlightAware
05:27PM 39.8030 143.6980 238° Southwest 398 458 34,000  Level FlightAware
05:28PM 39.7690 143.6290 237° Southwest 398 458 34,000  Level FlightAware
05:30PM 39.6425 143.3708 238° Southwest  Level FlightAware Approximate
05:31PM 39.5780 143.2399 237° Southwest  Level FlightAware Approximate
05:31PM 39.4670 143.0070 237° Southwest 34,000  Level FlightAware
05:32PM 39.4290 142.9300 237° Southwest 392 451 34,000  Level FlightAware
05:33PM 39.3960 142.8630 238° Southwest 394 453 34,000  Level FlightAware
05:33PM 39.3570 142.7860 237° Southwest 394 453 34,000  Level FlightAware
05:34PM 39.3020 142.6750 237° Southwest 392 451 34,000  Level FlightAware
05:35PM 39.2620 142.5950 237° Southwest 393 452 34,000  Level FlightAware
05:36PM 39.2150 142.5090 235° Southwest 396 456 34,000  Level FlightAware
05:36PM 39.1650 142.4340 229° Southwest 399 459 34,000  Level FlightAware
05:37PM 39.1110 142.3530 229° Southwest 398 458 34,000  Level FlightAware
05:38PM 39.0610 142.2790 229° Southwest 399 459 34,000  Level FlightAware
05:38PM 39.0170 142.2020 234° Southwest 397 457 34,000  Level FlightAware
05:39PM 38.9800 142.1080 243° Southwest 395 455 34,000  Level FlightAware
05:40PM 38.9500 142.0230 246° West 395 455 34,000  Level FlightAware
05:40PM 38.9200 141.9370 246° West 394 453 34,000  Level FlightAware
05:41PM 38.8860 141.8410 246° West 393 452 34,000  Level FlightAware
05:42PM 38.8420 141.7180 245° Southwest 392 451 34,000  Level FlightAware
05:45PM 38.6289 141.4747 222° Southwest  Level FlightAware Approximate
05:46PM 38.5393 141.3730 222° Southwest  Level FlightAware Approximate
05:47PM 38.4496 141.2716 222° Southwest  Level FlightAware Approximate
05:48PM 38.3599 141.1705 221° Southwest  Level FlightAware Approximate
05:49PM 38.2701 141.0696 221° Southwest  Level FlightAware Approximate
05:50PM 38.1801 140.9689 221° Southwest  Level FlightAware Approximate
05:50PM 38.4980 140.7580 221° Southwest 401 461 34,000  Level FlightAware
05:50PM 38.4610 140.6580 245° Southwest 402 463 34,000  Level FlightAware
05:51PM 38.4170 140.5420 244° Southwest 405 466 34,000  Level FlightAware
05:52PM 38.3900 140.4710 244° Southwest 405 466 34,000  Level FlightAware
05:53PM 38.3480 140.3590 244° Southwest 405 466 34,000  Level FlightAware
05:53PM 38.3200 140.2840 245° Southwest 405 466 34,000  Level FlightAware
05:54PM 38.2850 140.1920 244° Southwest 403 464 34,000  Level FlightAware
05:55PM 38.2480 140.0940 244° Southwest 403 464 34,000  Level FlightAware
05:55PM 38.2210 140.0260 243° Southwest 403 464 34,000  Level FlightAware
05:56PM 38.1740 139.9030 244° Southwest 410 472 34,000  Level FlightAware
05:57PM 38.1410 139.8170 244° Southwest 407 468 34,000  Level FlightAware
05:58PM 38.1030 139.7200 244° Southwest 408 470 34,000  Level FlightAware
06:00PM 38.0390 139.4586 253° West  Level FlightAware Approximate
06:00PM 37.9910 139.4310 253° West 402 463 34,000  Level FlightAware
06:01PM 37.9220 139.2560 243° Southwest 402 463 34,000  Level FlightAware
06:02PM 37.8850 139.1610 244° Southwest 401 461 34,000  Level FlightAware
06:03PM 37.8480 139.0670 244° Southwest 401 461 34,000  Level FlightAware
06:04PM 37.8150 138.9830 244° Southwest 401 461 34,000  Level FlightAware
06:04PM 37.7770 138.8870 243° Southwest 401 461 34,000  Level FlightAware
06:05PM 37.7440 138.8050 243° Southwest 401 461 34,000  Level FlightAware
06:06PM 37.7100 138.7190 243° Southwest 402 463 34,000  Level FlightAware
06:06PM 37.6720 138.6240 243° Southwest 402 463 34,000  Level FlightAware
06:07PM 37.6380 138.5410 243° Southwest 402 463 34,000  Level FlightAware
06:08PM 37.6000 138.4470 243° Southwest 402 463 34,000  Level FlightAware
06:08PM 37.5670 138.3630 244° Southwest 401 461 34,000  Level FlightAware
06:09PM 37.5330 138.2800 243° Southwest 400 460 34,000  Level FlightAware
06:10PM 37.4950 138.1860 243° Southwest 400 460 34,000  Level FlightAware
06:10PM 37.4660 138.1140 243° Southwest 399 459 34,000  Level FlightAware
06:11PM 37.4240 138.0100 243° Southwest 397 457 34,000  Level FlightAware
06:12PM 37.3890 137.9240 243° Southwest 394 453 34,000  Level FlightAware
06:13PM 37.3560 137.8440 243° Southwest 395 455 34,000  Level FlightAware
06:13PM 37.3180 137.7510 243° Southwest 398 458 34,000  Level FlightAware
06:14PM 37.2830 137.6670 242° Southwest 396 456 34,000  Level FlightAware
06:15PM 37.2490 137.5860 242° Southwest 394 453 34,000  Level FlightAware
06:15PM 37.2110 137.4960 242° Southwest 394 453 34,000  Level FlightAware
06:16PM 37.1800 137.4180 244° Southwest 394 453 34,000  Level FlightAware
06:17PM 37.1400 137.3240 242° Southwest 393 452 34,000  Level FlightAware
06:18PM 37.1060 137.2420 243° Southwest 393 452 34,000  Level FlightAware
06:18PM 37.0710 137.1590 242° Southwest 390 449 34,000  Level FlightAware
06:19PM 37.0380 137.0800 242° Southwest 392 451 34,000  Level FlightAware
06:20PM 37.0040 136.9980 243° Southwest 390 449 34,000  Level FlightAware
06:20PM 36.9660 136.9090 242° Southwest 390 449 34,000  Level FlightAware
06:21PM 36.9320 136.8290 242° Southwest 392 451 34,000  Level FlightAware
06:22PM 36.8980 136.7480 242° Southwest 395 455 34,000  Level FlightAware
06:22PM 36.8600 136.6580 242° Southwest 393 452 34,000  Level FlightAware
06:23PM 36.8270 136.5820 242° Southwest 391 450 34,000  Level FlightAware
06:24PM 36.7920 136.4990 242° Southwest 389 448 34,000  Level FlightAware
06:24PM 36.7640 136.4340 242° Southwest 387 445 34,000  Level FlightAware
06:25PM 36.7180 136.3280 242° Southwest 385 443 34,000  Level FlightAware
06:26PM 36.6810 136.2420 242° Southwest 385 443 34,000  Level FlightAware
06:27PM 36.6470 136.1640 242° Southwest 384 442 34,000  Level FlightAware
06:27PM 36.6150 136.0880 242° Southwest 381 438 34,000  Level FlightAware
06:28PM 36.5770 136.0020 241° Southwest 379 436 34,000  Level FlightAware
06:29PM 36.5440 135.9250 242° Southwest 378 435 34,000  Level FlightAware
06:29PM 36.5140 135.8570 241° Southwest 378 435 34,000  Level FlightAware
06:30PM 36.4810 135.7820 241° Southwest 378 435 34,000  Level FlightAware
06:31PM 36.4390 135.6870 241° Southwest 378 435 34,000  Level FlightAware
06:31PM 36.4110 135.6240 241° Southwest 379 436 34,000  Level FlightAware
06:32PM 36.3680 135.5240 242° Southwest 379 436 34,000  Level FlightAware
06:33PM 36.3390 135.4450 246° West 376 433 34,000  Level FlightAware
06:34PM 36.3200 135.2970 261° West 376 433 34,000  Level FlightAware
06:35PM 36.3130 135.2260 263° West 375 432 34,000  Level FlightAware
06:36PM 36.3020 135.1040 264° West 376 433 34,000  Level FlightAware
06:36PM 36.2950 135.0180 264° West 377 434 34,000  Level FlightAware
06:37PM 36.2860 134.9300 263° West 378 435 34,000  Level FlightAware
06:38PM 36.2790 134.8480 264° West 379 436 34,000  Level FlightAware
06:39PM 36.2670 134.7170 264° West 380 437 34,000  Level FlightAware
06:39PM 36.2580 134.6190 264° West 381 438 34,000  Level FlightAware
06:40PM 36.2510 134.5540 262° West 381 438 34,000  Level FlightAware
06:41PM 36.2410 134.4460 263° West 382 440 34,000  Level FlightAware
06:41PM 36.2320 134.3480 264° West 383 441 34,000  Level FlightAware
06:42PM 36.2260 134.2860 263° West 384 442 34,000  Level FlightAware
06:43PM 36.2130 134.1600 263° West 384 442 34,000  Level FlightAware
06:43PM 36.2060 134.0850 263° West 384 442 34,000  Level FlightAware
06:45PM 36.1910 133.9370 263° West 383 441 34,000  Level FlightAware
06:45PM 36.1790 133.8200 263° West 381 438 34,000  Level FlightAware
06:46PM 36.1670 133.7010 263° West 379 436 34,000  Level FlightAware
06:47PM 36.1560 133.5970 263° West 380 437 34,000  Level FlightAware
06:48PM 36.1450 133.4850 263° West 381 438 34,000  Level FlightAware
06:49PM 36.1320 133.3660 262° West 381 438 34,000  Level FlightAware
06:50PM 36.1200 133.2550 262° West 381 438 34,000  Level FlightAware
06:50PM 36.1120 133.1810 262° West 381 438 34,000  Level FlightAware
06:51PM 36.0980 133.0520 262° West 381 438 34,000  Level FlightAware
06:52PM 36.0900 132.9780 262° West 381 438 34,000  Level FlightAware
06:53PM 36.0820 132.9050 262° West 381 438 34,000  Level FlightAware
06:53PM 36.0730 132.8310 261° West 381 438 34,000  Level FlightAware
06:54PM 36.0630 132.7400 262° West 381 438 34,000  Level FlightAware
06:55PM 36.0550 132.6660 262° West 381 438 34,000  Level FlightAware
06:56PM 36.0460 132.5930 261° West 381 438 34,000 -360 Level FlightAware
06:58PM 36.1183 132.3157 288° West  Level Estimated
06:59PM 36.1548 132.1745 288° West  Level Estimated
07:00PM 36.1911 132.0331 288° West  Level Estimated
07:01PM 36.2273 131.8917 288° West  Level Estimated
07:02PM 36.2633 131.7501 288° West  Level Estimated
07:03PM 36.2991 131.6083 287° West  Level Estimated
07:04PM 36.3348 131.4665 287° West  Level Estimated
07:05PM 36.3703 131.3245 287° West  Level Estimated
07:06PM 36.4056 131.1824 287° West  Level Estimated
07:07PM 36.4408 131.0401 287° West  Level Estimated
07:08PM 36.4757 130.8977 287° West  Level Estimated
07:09PM 36.5106 130.7552 287° West  Level Estimated
07:10PM 36.5452 130.6126 287° West  Level Estimated
07:11PM 36.5797 130.4698 287° West  Level Estimated
07:12PM 36.6140 130.3270 287° West  Level Estimated
07:13PM 36.6481 130.1839 287° West  Level Estimated
07:14PM 36.6821 130.0408 287° West  Level Estimated
07:15PM 36.7159 129.8975 286° West  Level Estimated
07:16PM 36.7495 129.7541 286° West  Level Estimated
07:17PM 36.7830 129.6106 286° West  Level Estimated
07:18PM 36.8163 129.4670 286° West  Level Estimated
07:19PM 36.8494 129.3232 286° West  Level Estimated
07:20PM 36.8823 129.1793 286° West  Level Estimated
07:21PM 36.9151 129.0353 286° West  Level Estimated
07:22PM 36.9477 128.8912 286° West  Level Estimated
07:23PM 36.9801 128.7469 286° West  Level Estimated
07:24PM 37.0123 128.6025 286° West  Level Estimated
07:25PM 37.0444 128.4580 286° West  Level Estimated
07:26PM 37.0763 128.3134 285° West  Level Estimated
07:27PM 37.1080 128.1686 285° West  Level Estimated
07:28PM 37.1396 128.0238 285° West  Level Estimated
07:29PM 37.1709 127.8788 285° West  Level Estimated
07:30PM 37.2021 127.7337 285° West  Level Estimated
07:31PM 37.2331 127.5884 285° West  Level Estimated
07:32PM 37.2640 127.4431 285° West  Level Estimated
07:33PM 37.2946 127.2976 285° West  Level Estimated
07:33PM 36.9670 127.7350 285° West 343 395 20,300  Level FlightAware
07:34PM 37.3251 127.1520 285° West  Level Estimated
07:34PM 37.0000 127.6720 303° West 315 362 19,200  Level FlightAware
07:35PM 37.0230 127.5770 287° West 307 353 17,500 -1,800 Descending FlightAware
07:35PM 37.0360 127.5040 283° West 307 353 16,200 -1,920 Descending FlightAware
07:36PM 37.0480 127.4350 282° West 303 349 15,000 -1,800 Descending FlightAware
07:37PM 37.0610 127.3630 283° West 299 344 13,700 -1,860 Descending FlightAware
07:38PM 37.0740 127.2900 283° West 295 339 12,400 -1,740 Descending FlightAware
07:38PM 37.0860 127.2200 282° West 291 335 11,300 -1,560 Descending FlightAware
07:39PM 37.0990 127.1430 282° West 280 322 10,100 -1,380 Descending FlightAware
07:39PM 37.1070 127.1010 283° West 268 308 9,700 -1,140 Descending FlightAware
07:40PM 37.1140 127.0580 282° West 263 303 9,100 -1,200 Descending FlightAware
07:40PM 37.1170 127.0400 282° West 263 303 8,800 -360 Descending FlightAware
07:41PM 37.1240 126.9920 280° West 263 303 8,800 -1,020 Level FlightAware
07:41PM 37.1350 126.9370 284° West 252 290 7,700 -1,440 Descending FlightAware
07:42PM 37.1390 126.9130 282° West 245 282 7,600 -240 Descending FlightAware
07:43PM 37.1620 126.7810 282° West 7,100 -240 Descending FlightAware
07:44PM 37.1690 126.7400 282° West 215 247 7,100  Level FlightAware
07:44PM 37.1760 126.6980 282° West 217 250 7,100 -960 Level FlightAware
07:45PM 37.2240 126.6690 334° Northwest 194 223 5,800 -1,380 Descending FlightAware
07:46PM 37.2400 126.6570 329° Northwest 179 206 5,400 -1,020 Descending FlightAware
07:46PM 37.2630 126.6360 324° Northwest 177 204 4,900 -1,020 Descending FlightAware
07:47PM 37.2840 126.6180 326° Northwest 175 201 4,400 -1,020 Descending FlightAware
07:47PM 37.2980 126.6060 326° Northwest 177 204 4,000 -480 Descending FlightAware
07:48PM 37.3140 126.5910 323° Northwest 177 204 4,000  Level FlightAware
07:50PM 37.4691 126.4505 293° West  Level Estimated
07:51PM 37.4691 126.4505 293° West  Level Estimated
07:52PM 37.4691 126.4505 293° West  Level Estimated
07:53PM 37.4691 126.4505 293° West  Level Estimated
07:54PM 37.4691 126.4505 293° West  Level Estimated
07:55PM 37.4691 126.4505 293° West  Level Estimated
07:56PM 37.4691 126.4505 293° West  Level Estimated
07:57PM 37.4691 126.4505 293° West  Level Estimated
07:58PM 37.4691 126.4505 293° West  Level Estimated
07:59PM 37.4691 126.4505 293° West  Level Estimated
08:00PM 37.4691 126.4505 293° West  Level Estimated
08:01PM 37.4691 126.4505 293° West  Level Estimated
08:02PM 37.4691 126.4505 293° West  Level Estimated